sensor_id;sensor_type;location;lat;lon;timestamp;temperature;humidity
5218;DHT22;26539;51.064;6.346;2022-11-20T00:01:44;5.10;99.90
5218;DHT22;26539;51.064;6.346;2022-11-20T00:04:11;5.10;99.90
5218;DHT22;26539;51.064;6.346;2022-11-20T00:06:37;5.00;99.90
5218;DHT22;26539;51.064;6.346;2022-11-20T00:09:03;5.00;99.90
5218;DHT22;26539;51.064;6.346;2022-11-20T00:11:31;5.00;99.90
5218;DHT22;26539;51.064;6.346;2022-11-20T00:13:59;5.10;1.00
5218;DHT22;26539;51.064;6.346;2022-11-20T00:16:26;5.10;1.00
5218;DHT22;26539;51.064;6.346;2022-11-20T00:18:53;5.20;1.00
5218;DHT22;26539;51.064;6.346;2022-11-20T00:21:21;5.20;1.00
5218;DHT22;26539;51.064;6.346;2022-11-20T00:23:47;5.20;1.00
5218;DHT22;26539;51.064;6.346;2022-11-20T00:26:16;5.20;1.00
5218;DHT22;26539;51.064;6.346;2022-11-20T00:28:43;5.20;1.00
5218;DHT22;26539;51.064;6.346;2022-11-20T00:31:14;5.30;1.00
5218;DHT22;26539;51.064;6.346;2022-11-20T00:33:41;5.30;1.00
5218;DHT22;26539;51.064;6.346;2022-11-20T00:36:12;5.30;1.00
5218;DHT22;26539;51.064;6.346;2022-11-20T00:38:38;5.30;1.00
5218;DHT22;26539;51.064;6.346;2022-11-20T00:41:06;5.30;1.00
5218;DHT22;26539;51.064;6.346;2022-11-20T00:43:32;5.30;1.00
5218;DHT22;26539;51.064;6.346;2022-11-20T00:46:08;5.30;1.00
5218;DHT22;26539;51.064;6.346;2022-11-20T00:48:34;5.30;1.00
5218;DHT22;26539;51.064;6.346;2022-11-20T00:51:00;5.30;1.00
5218;DHT22;26539;51.064;6.346;2022-11-20T00:53:26;5.30;1.00
5218;DHT22;26539;51.064;6.346;2022-11-20T00:56:09;5.30;1.00
5218;DHT22;26539;51.064;6.346;2022-11-20T00:58:37;5.30;99.90
5218;DHT22;26539;51.064;6.346;2022-11-20T01:01:11;5.30;99.90
5218;DHT22;26539;51.064;6.346;2022-11-20T01:03:49;5.30;99.90
5218;DHT22;26539;51.064;6.346;2022-11-20T01:06:49;5.30;99.90
5218;DHT22;26539;51.064;6.346;2022-11-20T01:09:12;5.20;99.90
5218;DHT22;26539;51.064;6.346;2022-11-20T01:11:40;5.20;99.90
5218;DHT22;26539;51.064;6.346;2022-11-20T01:14:09;5.10;99.90
5218;DHT22;26539;51.064;6.346;2022-11-20T01:16:49;5.20;1.00
5218;DHT22;26539;51.064;6.346;2022-11-20T01:19:18;5.20;1.00
5218;DHT22;26539;51.064;6.346;2022-11-20T01:21:45;5.20;1.00
5218;DHT22;26539;51.064;6.346;2022-11-20T01:24:13;5.20;1.00
5218;DHT22;26539;51.064;6.346;2022-11-20T01:26:41;5.20;1.00
5218;DHT22;26539;51.064;6.346;2022-11-20T01:29:09;5.20;99.90
5218;DHT22;26539;51.064;6.346;2022-11-20T01:31:39;5.10;99.90
5218;DHT22;26539;51.064;6.346;2022-11-20T01:34:09;5.10;1.00
5218;DHT22;26539;51.064;6.346;2022-11-20T01:36:36;5.10;1.00
5218;DHT22;26539;51.064;6.346;2022-11-20T01:39:15;5.00;1.00
5218;DHT22;26539;51.064;6.346;2022-11-20T01:41:44;5.00;1.00
5218;DHT22;26539;51.064;6.346;2022-11-20T01:44:52;5.00;1.00
5218;DHT22;26539;51.064;6.346;2022-11-20T01:47:37;5.10;99.90
5218;DHT22;26539;51.064;6.346;2022-11-20T01:50:12;5.10;99.90
5218;DHT22;26539;51.064;6.346;2022-11-20T02:34:08;4.10;99.90
5218;DHT22;26539;51.064;6.346;2022-11-20T02:36:36;4.20;80.00
5218;DHT22;26539;51.064;6.346;2022-11-20T02:39:04;4.30;99.90
5218;DHT22;26539;51.064;6.346;2022-11-20T02:41:37;4.40;1.00
5218;DHT22;26539;51.064;6.346;2022-11-20T02:44:04;4.50;1.00
5218;DHT22;26539;51.064;6.346;2022-11-20T02:46:30;4.70;66.20
5218;DHT22;26539;51.064;6.346;2022-11-20T02:48:56;4.80;1.00
5218;DHT22;26539;51.064;6.346;2022-11-20T02:51:24;4.90;1.00
5218;DHT22;26539;51.064;6.346;2022-11-20T02:53:50;5.00;1.00
5218;DHT22;26539;51.064;6.346;2022-11-20T02:56:16;5.00;1.00
5218;DHT22;26539;51.064;6.346;2022-11-20T02:58:41;5.10;99.90
5218;DHT22;26539;51.064;6.346;2022-11-20T03:01:07;5.10;99.90
5218;DHT22;26539;51.064;6.346;2022-11-20T03:03:35;5.10;99.90
5218;DHT22;26539;51.064;6.346;2022-11-20T03:06:00;5.20;99.90
5218;DHT22;26539;51.064;6.346;2022-11-20T03:08:26;5.10;99.90
5218;DHT22;26539;51.064;6.346;2022-11-20T03:10:51;5.10;99.90
5218;DHT22;26539;51.064;6.346;2022-11-20T03:13:17;5.10;99.90
5218;DHT22;26539;51.064;6.346;2022-11-20T03:15:42;5.10;99.90
5218;DHT22;26539;51.064;6.346;2022-11-20T03:18:08;5.20;1.00
5218;DHT22;26539;51.064;6.346;2022-11-20T03:20:33;5.20;1.00
5218;DHT22;26539;51.064;6.346;2022-11-20T03:22:59;5.20;1.00
5218;DHT22;26539;51.064;6.346;2022-11-20T03:25:25;5.30;1.00
5218;DHT22;26539;51.064;6.346;2022-11-20T03:27:51;5.40;1.00
5218;DHT22;26539;51.064;6.346;2022-11-20T03:30:16;5.40;99.90
5218;DHT22;26539;51.064;6.346;2022-11-20T03:32:42;5.50;99.90
5218;DHT22;26539;51.064;6.346;2022-11-20T03:35:08;5.50;99.90
5218;DHT22;26539;51.064;6.346;2022-11-20T03:37:33;5.50;99.90
5218;DHT22;26539;51.064;6.346;2022-11-20T03:39:59;5.50;99.90
5218;DHT22;26539;51.064;6.346;2022-11-20T03:42:24;5.50;99.90
5218;DHT22;26539;51.064;6.346;2022-11-20T03:45:09;5.60;99.90
5218;DHT22;26539;51.064;6.346;2022-11-20T03:47:34;5.60;99.90
5218;DHT22;26539;51.064;6.346;2022-11-20T03:50:00;5.60;99.90
5218;DHT22;26539;51.064;6.346;2022-11-20T03:52:25;5.60;99.90
5218;DHT22;26539;51.064;6.346;2022-11-20T03:54:51;5.60;99.90
5218;DHT22;26539;51.064;6.346;2022-11-20T03:57:16;5.70;99.90
5218;DHT22;26539;51.064;6.346;2022-11-20T03:59:42;5.70;85.00
5218;DHT22;26539;51.064;6.346;2022-11-20T04:02:07;5.70;1.00
5218;DHT22;26539;51.064;6.346;2022-11-20T04:04:33;5.70;12.10
5218;DHT22;26539;51.064;6.346;2022-11-20T04:06:58;5.80;1.00
5218;DHT22;26539;51.064;6.346;2022-11-20T04:09:24;5.70;1.00
5218;DHT22;26539;51.064;6.346;2022-11-20T04:11:49;5.80;1.00
5218;DHT22;26539;51.064;6.346;2022-11-20T04:14:15;5.80;1.00
5218;DHT22;26539;51.064;6.346;2022-11-20T04:16:44;5.80;1.00
5218;DHT22;26539;51.064;6.346;2022-11-20T04:19:16;5.80;1.00
5218;DHT22;26539;51.064;6.346;2022-11-20T04:21:43;5.80;1.00
5218;DHT22;26539;51.064;6.346;2022-11-20T04:24:09;5.80;1.00
5218;DHT22;26539;51.064;6.346;2022-11-20T04:26:36;5.90;1.00
5218;DHT22;26539;51.064;6.346;2022-11-20T04:29:02;5.90;99.90
5218;DHT22;26539;51.064;6.346;2022-11-20T04:31:30;5.80;99.90
5218;DHT22;26539;51.064;6.346;2022-11-20T04:33:59;5.80;99.90
5218;DHT22;26539;51.064;6.346;2022-11-20T04:36:27;5.80;57.50
5218;DHT22;26539;51.064;6.346;2022-11-20T04:39:00;5.80;1.00
5218;DHT22;26539;51.064;6.346;2022-11-20T04:41:28;5.80;1.00
5218;DHT22;26539;51.064;6.346;2022-11-20T04:43:56;5.70;1.00
5218;DHT22;26539;51.064;6.346;2022-11-20T04:46:25;5.70;1.00
5218;DHT22;26539;51.064;6.346;2022-11-20T04:48:51;5.70;99.90
5218;DHT22;26539;51.064;6.346;2022-11-20T04:51:16;5.70;1.00
5218;DHT22;26539;51.064;6.346;2022-11-20T04:53:42;5.70;1.00
5218;DHT22;26539;51.064;6.346;2022-11-20T04:56:09;5.70;99.90
5218;DHT22;26539;51.064;6.346;2022-11-20T04:58:35;5.70;99.90
5218;DHT22;26539;51.064;6.346;2022-11-20T05:01:15;5.70;99.90
5218;DHT22;26539;51.064;6.346;2022-11-20T05:03:43;5.60;99.90
5218;DHT22;26539;51.064;6.346;2022-11-20T05:06:10;5.60;99.90
5218;DHT22;26539;51.064;6.346;2022-11-20T05:08:36;5.60;99.90
5218;DHT22;26539;51.064;6.346;2022-11-20T05:11:07;5.60;34.00
5218;DHT22;26539;51.064;6.346;2022-11-20T05:13:34;5.60;1.00
5218;DHT22;26539;51.064;6.346;2022-11-20T05:16:11;5.60;1.00
5218;DHT22;26539;51.064;6.346;2022-11-20T05:18:37;5.50;99.90
5218;DHT22;26539;51.064;6.346;2022-11-20T05:21:04;5.40;99.90
5218;DHT22;26539;51.064;6.346;2022-11-20T05:23:31;5.30;32.20
5218;DHT22;26539;51.064;6.346;2022-11-20T05:25:58;5.20;99.90
5218;DHT22;26539;51.064;6.346;2022-11-20T05:28:24;5.20;99.90
5218;DHT22;26539;51.064;6.346;2022-11-20T05:30:49;5.20;99.90
5218;DHT22;26539;51.064;6.346;2022-11-20T05:33:15;5.10;1.00
5218;DHT22;26539;51.064;6.346;2022-11-20T05:35:41;5.00;97.10
5218;DHT22;26539;51.064;6.346;2022-11-20T05:38:07;5.10;99.90
5218;DHT22;26539;51.064;6.346;2022-11-20T05:40:32;5.10;99.90
5218;DHT22;26539;51.064;6.346;2022-11-20T05:42:58;5.10;99.90
5218;DHT22;26539;51.064;6.346;2022-11-20T05:45:24;5.10;99.90
5218;DHT22;26539;51.064;6.346;2022-11-20T05:47:50;5.00;99.90
5218;DHT22;26539;51.064;6.346;2022-11-20T05:50:15;5.00;99.90
5218;DHT22;26539;51.064;6.346;2022-11-20T05:52:41;4.90;99.90
5218;DHT22;26539;51.064;6.346;2022-11-20T05:55:07;4.90;1.00
5218;DHT22;26539;51.064;6.346;2022-11-20T05:57:33;4.80;1.00
5218;DHT22;26539;51.064;6.346;2022-11-20T05:59:58;4.90;99.90
5218;DHT22;26539;51.064;6.346;2022-11-20T06:09:23;5.00;99.90
5218;DHT22;26539;51.064;6.346;2022-11-20T06:12:07;5.00;99.90
5218;DHT22;26539;51.064;6.346;2022-11-20T06:15:29;5.00;99.90
5218;DHT22;26539;51.064;6.346;2022-11-20T06:24:21;5.20;28.70
5218;DHT22;26539;51.064;6.346;2022-11-20T06:40:45;5.40;1.00
5218;DHT22;26539;51.064;6.346;2022-11-20T06:56:30;5.40;99.90
5218;DHT22;26539;51.064;6.346;2022-11-20T06:59:16;5.40;99.90
5218;DHT22;26539;51.064;6.346;2022-11-20T07:02:32;5.40;99.90
5218;DHT22;26539;51.064;6.346;2022-11-20T07:12:08;5.60;1.00
5218;DHT22;26539;51.064;6.346;2022-11-20T07:14:50;5.70;1.00
5218;DHT22;26539;51.064;6.346;2022-11-20T07:17:41;5.70;1.00
5218;DHT22;26539;51.064;6.346;2022-11-20T07:20:28;5.70;99.90
5218;DHT22;26539;51.064;6.346;2022-11-20T07:23:09;5.70;99.90
5218;DHT22;26539;51.064;6.346;2022-11-20T07:25:51;5.70;99.90
5218;DHT22;26539;51.064;6.346;2022-11-20T07:31:43;5.80;99.90
5218;DHT22;26539;51.064;6.346;2022-11-20T07:38:43;5.70;89.60
5218;DHT22;26539;51.064;6.346;2022-11-20T07:49:02;5.80;99.90
5218;DHT22;26539;51.064;6.346;2022-11-20T07:57:56;5.90;1.00
5218;DHT22;26539;51.064;6.346;2022-11-20T08:04:04;5.90;1.00
5218;DHT22;26539;51.064;6.346;2022-11-20T08:10:14;6.00;1.00
5218;DHT22;26539;51.064;6.346;2022-11-20T08:16:49;6.10;1.00
5218;DHT22;26539;51.064;6.346;2022-11-20T08:19:46;6.10;1.00
5218;DHT22;26539;51.064;6.346;2022-11-20T08:29:19;6.70;99.90
5218;DHT22;26539;51.064;6.346;2022-11-20T08:32:08;6.90;1.00
5218;DHT22;26539;51.064;6.346;2022-11-20T08:42:02;6.70;99.90
5218;DHT22;26539;51.064;6.346;2022-11-20T08:45:35;6.60;99.90
5218;DHT22;26539;51.064;6.346;2022-11-20T08:58:32;6.50;1.00
5218;DHT22;26539;51.064;6.346;2022-11-20T09:50:32;8.10;99.90
5218;DHT22;26539;51.064;6.346;2022-11-20T09:53:59;8.00;99.90
5218;DHT22;26539;51.064;6.346;2022-11-20T10:00:49;7.90;99.90
5218;DHT22;26539;51.064;6.346;2022-11-20T12:02:01;7.80;48.10
5218;DHT22;26539;51.064;6.346;2022-11-20T12:04:50;7.80;99.90
5218;DHT22;26539;51.064;6.346;2022-11-20T12:09:53;7.70;99.90
5218;DHT22;26539;51.064;6.346;2022-11-20T12:15:46;7.80;99.90
5218;DHT22;26539;51.064;6.346;2022-11-20T12:18:21;8.00;99.90
5218;DHT22;26539;51.064;6.346;2022-11-20T12:35:41;7.70;1.00
5218;DHT22;26539;51.064;6.346;2022-11-20T12:38:26;7.60;1.00
5218;DHT22;26539;51.064;6.346;2022-11-20T12:41:12;7.70;80.10
5218;DHT22;26539;51.064;6.346;2022-11-20T12:44:12;7.70;63.50
5218;DHT22;26539;51.064;6.346;2022-11-20T12:50:08;7.70;99.90
5218;DHT22;26539;51.064;6.346;2022-11-20T12:58:30;7.60;1.00
5218;DHT22;26539;51.064;6.346;2022-11-20T13:01:07;7.70;1.00
5218;DHT22;26539;51.064;6.346;2022-11-20T13:03:57;7.80;1.00
5218;DHT22;26539;51.064;6.346;2022-11-20T13:06:30;7.90;99.90
5218;DHT22;26539;51.064;6.346;2022-11-20T13:08:56;8.00;99.90
5218;DHT22;26539;51.064;6.346;2022-11-20T13:11:37;8.10;82.60
5218;DHT22;26539;51.064;6.346;2022-11-20T13:14:50;8.20;99.90
5218;DHT22;26539;51.064;6.346;2022-11-20T13:17:30;8.20;99.90
5218;DHT22;26539;51.064;6.346;2022-11-20T13:19:58;8.20;99.90
5218;DHT22;26539;51.064;6.346;2022-11-20T13:22:45;8.20;99.90
5218;DHT22;26539;51.064;6.346;2022-11-20T13:25:33;8.10;99.90
5218;DHT22;26539;51.064;6.346;2022-11-20T13:28:05;8.00;1.00
5218;DHT22;26539;51.064;6.346;2022-11-20T13:30:51;8.00;1.00
5218;DHT22;26539;51.064;6.346;2022-11-20T13:33:32;8.10;1.00
5218;DHT22;26539;51.064;6.346;2022-11-20T13:36:07;8.10;1.00
5218;DHT22;26539;51.064;6.346;2022-11-20T13:38:45;8.20;1.00
5218;DHT22;26539;51.064;6.346;2022-11-20T13:41:22;8.20;1.00
5218;DHT22;26539;51.064;6.346;2022-11-20T13:43:57;8.20;1.00
5218;DHT22;26539;51.064;6.346;2022-11-20T13:46:23;8.20;1.00
5218;DHT22;26539;51.064;6.346;2022-11-20T13:48:51;8.20;99.90
5218;DHT22;26539;51.064;6.346;2022-11-20T13:51:44;8.20;99.90
5218;DHT22;26539;51.064;6.346;2022-11-20T13:54:37;8.20;1.00
5218;DHT22;26539;51.064;6.346;2022-11-20T14:00:04;8.20;1.00
5218;DHT22;26539;51.064;6.346;2022-11-20T14:02:33;8.20;1.00
5218;DHT22;26539;51.064;6.346;2022-11-20T14:04:59;8.10;99.90
5218;DHT22;26539;51.064;6.346;2022-11-20T14:07:38;8.10;99.90
5218;DHT22;26539;51.064;6.346;2022-11-20T14:10:05;8.10;99.90
5218;DHT22;26539;51.064;6.346;2022-11-20T14:12:33;8.00;1.00
5218;DHT22;26539;51.064;6.346;2022-11-20T14:14:59;7.90;99.90
5218;DHT22;26539;51.064;6.346;2022-11-20T14:17:33;7.90;99.90
5218;DHT22;26539;51.064;6.346;2022-11-20T14:20:05;7.90;99.90
5218;DHT22;26539;51.064;6.346;2022-11-20T14:22:31;8.00;99.90
5218;DHT22;26539;51.064;6.346;2022-11-20T14:25:20;8.00;99.90
5218;DHT22;26539;51.064;6.346;2022-11-20T14:27:52;7.90;99.90
5218;DHT22;26539;51.064;6.346;2022-11-20T14:30:21;7.90;99.90
5218;DHT22;26539;51.064;6.346;2022-11-20T14:32:48;7.90;1.00
5218;DHT22;26539;51.064;6.346;2022-11-20T14:35:25;7.90;1.00
5218;DHT22;26539;51.064;6.346;2022-11-20T14:37:51;7.80;1.00
5218;DHT22;26539;51.064;6.346;2022-11-20T14:40:34;7.80;72.10
5218;DHT22;26539;51.064;6.346;2022-11-20T14:43:02;7.70;99.90
5218;DHT22;26539;51.064;6.346;2022-11-20T14:45:30;7.60;1.00
5218;DHT22;26539;51.064;6.346;2022-11-20T14:47:57;7.60;99.90
5218;DHT22;26539;51.064;6.346;2022-11-20T14:50:26;7.50;1.00
5218;DHT22;26539;51.064;6.346;2022-11-20T14:55:36;7.40;1.00
5218;DHT22;26539;51.064;6.346;2022-11-20T14:58:19;7.40;35.80
5218;DHT22;26539;51.064;6.346;2022-11-20T15:00:58;7.30;99.90
5218;DHT22;26539;51.064;6.346;2022-11-20T15:03:34;7.30;99.90
5218;DHT22;26539;51.064;6.346;2022-11-20T15:06:00;7.30;99.90
5218;DHT22;26539;51.064;6.346;2022-11-20T15:08:26;7.20;99.90
5218;DHT22;26539;51.064;6.346;2022-11-20T15:10:53;7.20;99.90
5218;DHT22;26539;51.064;6.346;2022-11-20T15:13:31;7.20;1.00
5218;DHT22;26539;51.064;6.346;2022-11-20T15:16:00;7.10;1.00
5218;DHT22;26539;51.064;6.346;2022-11-20T15:18:39;7.10;1.00
5218;DHT22;26539;51.064;6.346;2022-11-20T15:21:14;7.00;1.00
5218;DHT22;26539;51.064;6.346;2022-11-20T15:23:43;7.00;1.00
5218;DHT22;26539;51.064;6.346;2022-11-20T15:29:04;7.00;1.00
5218;DHT22;26539;51.064;6.346;2022-11-20T15:31:52;7.00;1.00
5218;DHT22;26539;51.064;6.346;2022-11-20T15:34:45;6.90;1.00
5218;DHT22;26539;51.064;6.346;2022-11-20T15:37:24;6.90;1.00
5218;DHT22;26539;51.064;6.346;2022-11-20T15:39:59;6.90;1.00
5218;DHT22;26539;51.064;6.346;2022-11-20T15:43:08;6.90;1.00
5218;DHT22;26539;51.064;6.346;2022-11-20T15:45:50;6.90;1.00
5218;DHT22;26539;51.064;6.346;2022-11-20T15:48:20;7.00;1.00
5218;DHT22;26539;51.064;6.346;2022-11-20T15:50:54;7.00;1.00
5218;DHT22;26539;51.064;6.346;2022-11-20T15:53:24;7.00;1.00
5218;DHT22;26539;51.064;6.346;2022-11-20T15:55:52;7.00;1.00
5218;DHT22;26539;51.064;6.346;2022-11-20T15:58:30;7.10;1.00
5218;DHT22;26539;51.064;6.346;2022-11-20T16:01:16;7.00;1.00
5218;DHT22;26539;51.064;6.346;2022-11-20T16:03:46;7.00;1.00
5218;DHT22;26539;51.064;6.346;2022-11-20T16:06:22;7.00;1.00
5218;DHT22;26539;51.064;6.346;2022-11-20T16:08:55;7.00;1.00
5218;DHT22;26539;51.064;6.346;2022-11-20T16:11:23;7.10;1.00
5218;DHT22;26539;51.064;6.346;2022-11-20T16:13:48;7.10;1.00
5218;DHT22;26539;51.064;6.346;2022-11-20T16:16:34;7.10;1.00
5218;DHT22;26539;51.064;6.346;2022-11-20T16:19:22;7.10;1.00
5218;DHT22;26539;51.064;6.346;2022-11-20T16:22:06;7.10;1.00
5218;DHT22;26539;51.064;6.346;2022-11-20T16:24:36;7.10;1.00
5218;DHT22;26539;51.064;6.346;2022-11-20T16:27:02;7.10;1.00
5218;DHT22;26539;51.064;6.346;2022-11-20T16:29:32;7.10;1.00
5218;DHT22;26539;51.064;6.346;2022-11-20T16:32:00;7.10;1.00
5218;DHT22;26539;51.064;6.346;2022-11-20T16:34:26;7.10;1.00
5218;DHT22;26539;51.064;6.346;2022-11-20T16:36:52;7.10;1.00
5218;DHT22;26539;51.064;6.346;2022-11-20T16:39:17;7.00;1.00
5218;DHT22;26539;51.064;6.346;2022-11-20T16:41:43;7.00;1.00
5218;DHT22;26539;51.064;6.346;2022-11-20T16:44:09;7.00;1.00
5218;DHT22;26539;51.064;6.346;2022-11-20T16:46:35;7.00;1.00
5218;DHT22;26539;51.064;6.346;2022-11-20T16:49:03;7.00;1.00
5218;DHT22;26539;51.064;6.346;2022-11-20T16:51:31;7.00;1.00
5218;DHT22;26539;51.064;6.346;2022-11-20T16:54:01;6.90;1.00
5218;DHT22;26539;51.064;6.346;2022-11-20T16:56:29;6.90;1.00
5218;DHT22;26539;51.064;6.346;2022-11-20T16:58:58;6.90;1.00
5218;DHT22;26539;51.064;6.346;2022-11-20T17:01:30;6.90;1.00
5218;DHT22;26539;51.064;6.346;2022-11-20T17:04:06;6.90;1.00
5218;DHT22;26539;51.064;6.346;2022-11-20T17:06:41;7.00;1.00
5218;DHT22;26539;51.064;6.346;2022-11-20T17:09:13;7.00;1.00
5218;DHT22;26539;51.064;6.346;2022-11-20T17:12:10;7.10;1.00
5218;DHT22;26539;51.064;6.346;2022-11-20T17:20:42;7.10;1.00
5218;DHT22;26539;51.064;6.346;2022-11-20T17:26:58;7.20;1.00
5218;DHT22;26539;51.064;6.346;2022-11-20T17:33:27;7.30;1.00
5218;DHT22;26539;51.064;6.346;2022-11-20T17:35:59;7.30;1.00
5218;DHT22;26539;51.064;6.346;2022-11-20T17:38:48;7.30;1.00
5218;DHT22;26539;51.064;6.346;2022-11-20T17:41:18;7.30;1.00
5218;DHT22;26539;51.064;6.346;2022-11-20T17:44:30;7.40;1.00
5218;DHT22;26539;51.064;6.346;2022-11-20T17:47:03;7.40;1.00
5218;DHT22;26539;51.064;6.346;2022-11-20T17:49:28;7.50;1.00
5218;DHT22;26539;51.064;6.346;2022-11-20T17:51:54;7.50;1.00
5218;DHT22;26539;51.064;6.346;2022-11-20T17:54:42;7.60;1.00
5218;DHT22;26539;51.064;6.346;2022-11-20T17:57:15;7.60;1.00
5218;DHT22;26539;51.064;6.346;2022-11-20T18:00:05;7.70;1.00
5218;DHT22;26539;51.064;6.346;2022-11-20T18:02:48;7.80;1.00
5218;DHT22;26539;51.064;6.346;2022-11-20T18:05:19;7.80;1.00
5218;DHT22;26539;51.064;6.346;2022-11-20T18:07:45;7.80;1.00
5218;DHT22;26539;51.064;6.346;2022-11-20T18:10:13;7.90;1.00
5218;DHT22;26539;51.064;6.346;2022-11-20T18:12:41;7.90;1.10
5218;DHT22;26539;51.064;6.346;2022-11-20T18:15:09;8.00;1.40
5218;DHT22;26539;51.064;6.346;2022-11-20T18:17:37;8.00;1.40
5218;DHT22;26539;51.064;6.346;2022-11-20T18:20:05;8.00;2.00
5218;DHT22;26539;51.064;6.346;2022-11-20T18:22:43;8.10;1.00
5218;DHT22;26539;51.064;6.346;2022-11-20T18:25:12;8.10;1.00
5218;DHT22;26539;51.064;6.346;2022-11-20T18:27:40;8.10;1.00
5218;DHT22;26539;51.064;6.346;2022-11-20T18:30:09;8.10;1.00
5218;DHT22;26539;51.064;6.346;2022-11-20T18:32:52;8.10;1.00
5218;DHT22;26539;51.064;6.346;2022-11-20T18:35:29;8.20;1.00
5218;DHT22;26539;51.064;6.346;2022-11-20T18:37:55;8.20;1.00
5218;DHT22;26539;51.064;6.346;2022-11-20T18:40:22;8.20;1.00
5218;DHT22;26539;51.064;6.346;2022-11-20T18:43:16;8.20;1.00
5218;DHT22;26539;51.064;6.346;2022-11-20T18:46:24;8.30;1.00
5218;DHT22;26539;51.064;6.346;2022-11-20T18:49:08;8.30;1.00
5218;DHT22;26539;51.064;6.346;2022-11-20T18:51:56;8.30;1.00
5218;DHT22;26539;51.064;6.346;2022-11-20T18:54:43;8.30;1.00
5218;DHT22;26539;51.064;6.346;2022-11-20T18:57:37;8.40;1.00
5218;DHT22;26539;51.064;6.346;2022-11-20T19:00:46;8.40;1.00
5218;DHT22;26539;51.064;6.346;2022-11-20T19:03:12;8.40;1.00
5218;DHT22;26539;51.064;6.346;2022-11-20T19:05:58;8.40;1.00
5218;DHT22;26539;51.064;6.346;2022-11-20T19:08:51;8.40;1.00
5218;DHT22;26539;51.064;6.346;2022-11-20T19:12:01;8.50;1.00
5218;DHT22;26539;51.064;6.346;2022-11-20T19:18:12;8.50;1.00
5218;DHT22;26539;51.064;6.346;2022-11-20T19:24:13;8.50;1.00
5218;DHT22;26539;51.064;6.346;2022-11-20T19:26:56;8.50;1.00
5218;DHT22;26539;51.064;6.346;2022-11-20T19:30:04;8.50;1.00
5218;DHT22;26539;51.064;6.346;2022-11-20T19:33:00;8.50;1.00
5218;DHT22;26539;51.064;6.346;2022-11-20T19:35:46;8.60;1.00
5218;DHT22;26539;51.064;6.346;2022-11-20T19:38:42;8.60;1.00
5218;DHT22;26539;51.064;6.346;2022-11-20T19:41:14;8.60;1.00
5218;DHT22;26539;51.064;6.346;2022-11-20T19:43:43;8.60;1.00
5218;DHT22;26539;51.064;6.346;2022-11-20T19:46:15;8.60;1.00
5218;DHT22;26539;51.064;6.346;2022-11-20T19:48:48;8.60;1.00
5218;DHT22;26539;51.064;6.346;2022-11-20T19:51:21;8.60;1.00
5218;DHT22;26539;51.064;6.346;2022-11-20T19:54:17;8.60;1.00
5218;DHT22;26539;51.064;6.346;2022-11-20T19:56:48;8.60;1.00
5218;DHT22;26539;51.064;6.346;2022-11-20T19:59:45;8.60;1.00
5218;DHT22;26539;51.064;6.346;2022-11-20T20:02:25;8.60;1.00
5218;DHT22;26539;51.064;6.346;2022-11-20T20:05:24;8.60;1.00
5218;DHT22;26539;51.064;6.346;2022-11-20T20:07:52;8.60;1.00
5218;DHT22;26539;51.064;6.346;2022-11-20T20:10:47;8.60;1.00
5218;DHT22;26539;51.064;6.346;2022-11-20T20:13:26;8.60;1.00
5218;DHT22;26539;51.064;6.346;2022-11-20T20:16:14;8.60;1.00
5218;DHT22;26539;51.064;6.346;2022-11-20T20:18:52;8.60;1.00
5218;DHT22;26539;51.064;6.346;2022-11-20T20:21:21;8.60;1.00
5218;DHT22;26539;51.064;6.346;2022-11-20T20:23:53;8.60;1.00
5218;DHT22;26539;51.064;6.346;2022-11-20T20:26:27;8.60;1.00
5218;DHT22;26539;51.064;6.346;2022-11-20T20:29:12;8.60;1.00
5218;DHT22;26539;51.064;6.346;2022-11-20T20:31:48;8.60;1.00
5218;DHT22;26539;51.064;6.346;2022-11-20T20:34:34;8.60;1.00
5218;DHT22;26539;51.064;6.346;2022-11-20T20:37:07;8.60;1.00
5218;DHT22;26539;51.064;6.346;2022-11-20T20:39:38;8.60;1.00
5218;DHT22;26539;51.064;6.346;2022-11-20T20:42:08;8.60;1.00
5218;DHT22;26539;51.064;6.346;2022-11-20T20:47:39;8.60;1.00
5218;DHT22;26539;51.064;6.346;2022-11-20T20:50:15;8.60;1.00
5218;DHT22;26539;51.064;6.346;2022-11-20T20:52:43;8.60;1.00
5218;DHT22;26539;51.064;6.346;2022-11-20T20:55:14;8.50;1.00
5218;DHT22;26539;51.064;6.346;2022-11-20T20:58:15;8.50;1.00
5218;DHT22;26539;51.064;6.346;2022-11-20T21:01:06;8.50;1.00
5218;DHT22;26539;51.064;6.346;2022-11-20T21:03:43;8.50;1.00
5218;DHT22;26539;51.064;6.346;2022-11-20T21:06:28;8.50;1.00
5218;DHT22;26539;51.064;6.346;2022-11-20T21:09:14;8.50;1.00
5218;DHT22;26539;51.064;6.346;2022-11-20T21:11:47;8.40;1.00
5218;DHT22;26539;51.064;6.346;2022-11-20T21:14:29;8.40;1.00
5218;DHT22;26539;51.064;6.346;2022-11-20T21:17:05;8.40;1.00
5218;DHT22;26539;51.064;6.346;2022-11-20T21:19:48;8.40;1.00
5218;DHT22;26539;51.064;6.346;2022-11-20T21:22:47;8.40;1.00
5218;DHT22;26539;51.064;6.346;2022-11-20T21:25:13;8.40;1.00
5218;DHT22;26539;51.064;6.346;2022-11-20T21:27:42;8.40;1.00
5218;DHT22;26539;51.064;6.346;2022-11-20T21:30:08;8.40;1.00
5218;DHT22;26539;51.064;6.346;2022-11-20T21:32:53;8.30;1.00
5218;DHT22;26539;51.064;6.346;2022-11-20T21:35:19;8.30;1.00
5218;DHT22;26539;51.064;6.346;2022-11-20T21:37:55;8.20;1.00
5218;DHT22;26539;51.064;6.346;2022-11-20T21:40:29;8.20;1.00
5218;DHT22;26539;51.064;6.346;2022-11-20T21:45:43;8.20;1.00
5218;DHT22;26539;51.064;6.346;2022-11-20T21:48:34;8.20;1.00
5218;DHT22;26539;51.064;6.346;2022-11-20T21:51:10;8.10;1.00
5218;DHT22;26539;51.064;6.346;2022-11-20T21:53:39;8.10;1.00
5218;DHT22;26539;51.064;6.346;2022-11-20T21:56:14;8.10;1.00
5218;DHT22;26539;51.064;6.346;2022-11-20T22:01:46;8.10;1.00
5218;DHT22;26539;51.064;6.346;2022-11-20T22:04:19;8.10;1.00
5218;DHT22;26539;51.064;6.346;2022-11-20T22:06:55;8.10;1.00
5218;DHT22;26539;51.064;6.346;2022-11-20T22:09:26;8.20;1.00
5218;DHT22;26539;51.064;6.346;2022-11-20T22:12:04;8.20;1.00
5218;DHT22;26539;51.064;6.346;2022-11-20T22:14:39;8.20;1.00
5218;DHT22;26539;51.064;6.346;2022-11-20T22:17:30;8.10;1.00
5218;DHT22;26539;51.064;6.346;2022-11-20T22:20:15;8.10;1.00
5218;DHT22;26539;51.064;6.346;2022-11-20T22:22:51;8.10;1.00
5218;DHT22;26539;51.064;6.346;2022-11-20T22:25:16;8.10;1.00
5218;DHT22;26539;51.064;6.346;2022-11-20T22:27:44;8.10;1.00
5218;DHT22;26539;51.064;6.346;2022-11-20T22:30:14;8.10;1.00
5218;DHT22;26539;51.064;6.346;2022-11-20T22:32:42;8.10;1.00
5218;DHT22;26539;51.064;6.346;2022-11-20T22:35:26;8.10;1.00
5218;DHT22;26539;51.064;6.346;2022-11-20T22:37:52;8.10;1.00
5218;DHT22;26539;51.064;6.346;2022-11-20T22:40:20;8.10;1.00
5218;DHT22;26539;51.064;6.346;2022-11-20T22:43:03;8.10;1.00
5218;DHT22;26539;51.064;6.346;2022-11-20T22:45:29;8.10;1.00
5218;DHT22;26539;51.064;6.346;2022-11-20T22:47:55;8.10;1.00
5218;DHT22;26539;51.064;6.346;2022-11-20T22:50:20;8.10;1.00
5218;DHT22;26539;51.064;6.346;2022-11-20T22:52:46;8.20;1.00
5218;DHT22;26539;51.064;6.346;2022-11-20T22:55:11;8.20;1.00
5218;DHT22;26539;51.064;6.346;2022-11-20T22:57:37;8.20;1.00
5218;DHT22;26539;51.064;6.346;2022-11-20T23:00:03;8.30;1.00
5218;DHT22;26539;51.064;6.346;2022-11-20T23:02:28;8.30;1.00
5218;DHT22;26539;51.064;6.346;2022-11-20T23:04:54;8.30;1.00
5218;DHT22;26539;51.064;6.346;2022-11-20T23:07:19;8.30;1.00
5218;DHT22;26539;51.064;6.346;2022-11-20T23:09:45;8.30;1.00
5218;DHT22;26539;51.064;6.346;2022-11-20T23:12:10;8.30;1.00
5218;DHT22;26539;51.064;6.346;2022-11-20T23:14:36;8.30;1.00
5218;DHT22;26539;51.064;6.346;2022-11-20T23:17:01;8.20;1.00
5218;DHT22;26539;51.064;6.346;2022-11-20T23:19:27;8.20;1.00
5218;DHT22;26539;51.064;6.346;2022-11-20T23:21:52;8.20;1.00
5218;DHT22;26539;51.064;6.346;2022-11-20T23:24:18;8.20;1.00